sensor_id;sensor_type;location;lat;lon;timestamp;P1;durP1;ratioP1;P2;durP2;ratioP2
16906;SDS011;8570;52.380;4.654;2024-03-23T00:54:39;16.70;;;3.40;;
16906;SDS011;8570;52.380;4.654;2024-03-23T00:59:45;15.70;;;3.73;;
16906;SDS011;8570;52.380;4.654;2024-03-23T01:10:54;17.87;;;3.30;;
16906;SDS011;8570;52.380;4.654;2024-03-23T01:16:25;15.50;;;2.60;;
16906;SDS011;8570;52.380;4.654;2024-03-23T01:21:47;13.90;;;2.57;;
16906;SDS011;8570;52.380;4.654;2024-03-23T01:26:51;14.63;;;2.80;;
16906;SDS011;8570;52.380;4.654;2024-03-23T01:31:53;16.33;;;3.10;;
16906;SDS011;8570;52.380;4.654;2024-03-23T01:36:55;16.57;;;3.00;;
16906;SDS011;8570;52.380;4.654;2024-03-23T01:42:05;13.80;;;2.57;;
16906;SDS011;8570;52.380;4.654;2024-03-23T01:47:21;12.67;;;2.60;;
16906;SDS011;8570;52.380;4.654;2024-03-23T01:52:24;13.60;;;3.10;;
16906;SDS011;8570;52.380;4.654;2024-03-23T01:57:30;11.77;;;2.57;;
16906;SDS011;8570;52.380;4.654;2024-03-23T02:02:32;12.10;;;2.93;;
16906;SDS011;8570;52.380;4.654;2024-03-23T02:07:34;11.17;;;2.60;;
16906;SDS011;8570;52.380;4.654;2024-03-23T02:12:37;15.77;;;3.37;;
16906;SDS011;8570;52.380;4.654;2024-03-23T02:17:42;13.77;;;2.97;;
16906;SDS011;8570;52.380;4.654;2024-03-23T02:22:51;14.47;;;3.23;;
16906;SDS011;8570;52.380;4.654;2024-03-23T02:27:54;20.03;;;2.90;;
16906;SDS011;8570;52.380;4.654;2024-03-23T02:33:00;12.17;;;2.20;;
16906;SDS011;8570;52.380;4.654;2024-03-23T02:38:34;13.00;;;2.47;;
16906;SDS011;8570;52.380;4.654;2024-03-23T02:44:03;17.17;;;2.37;;
16906;SDS011;8570;52.380;4.654;2024-03-23T03:00:26;9.80;;;2.53;;
16906;SDS011;8570;52.380;4.654;2024-03-23T03:05:28;11.10;;;2.27;;
16906;SDS011;8570;52.380;4.654;2024-03-23T03:10:32;11.37;;;2.40;;
16906;SDS011;8570;52.380;4.654;2024-03-23T03:15:36;15.07;;;2.43;;
16906;SDS011;8570;52.380;4.654;2024-03-23T03:20:43;11.50;;;2.80;;
16906;SDS011;8570;52.380;4.654;2024-03-23T03:25:48;11.33;;;2.53;;
16906;SDS011;8570;52.380;4.654;2024-03-23T03:30:53;8.67;;;2.30;;
16906;SDS011;8570;52.380;4.654;2024-03-23T03:35:55;15.43;;;2.80;;
16906;SDS011;8570;52.380;4.654;2024-03-23T03:41:00;11.13;;;2.67;;
16906;SDS011;8570;52.380;4.654;2024-03-23T03:46:08;13.00;;;3.03;;
16906;SDS011;8570;52.380;4.654;2024-03-23T03:51:11;6.83;;;2.20;;
16906;SDS011;8570;52.380;4.654;2024-03-23T03:56:14;11.50;;;2.13;;
16906;SDS011;8570;52.380;4.654;2024-03-23T04:01:16;13.97;;;2.80;;
16906;SDS011;8570;52.380;4.654;2024-03-23T04:06:18;12.13;;;2.73;;
16906;SDS011;8570;52.380;4.654;2024-03-23T04:17:15;16.33;;;2.77;;
16906;SDS011;8570;52.380;4.654;2024-03-23T04:22:34;9.07;;;2.50;;
16906;SDS011;8570;52.380;4.654;2024-03-23T04:27:48;15.83;;;3.17;;
16906;SDS011;8570;52.380;4.654;2024-03-23T04:32:55;9.63;;;2.50;;
16906;SDS011;8570;52.380;4.654;2024-03-23T04:38:05;8.40;;;2.13;;
16906;SDS011;8570;52.380;4.654;2024-03-23T04:43:07;9.40;;;2.33;;
16906;SDS011;8570;52.380;4.654;2024-03-23T04:48:10;11.03;;;2.80;;
16906;SDS011;8570;52.380;4.654;2024-03-23T04:53:13;12.20;;;2.60;;
16906;SDS011;8570;52.380;4.654;2024-03-23T04:58:15;14.47;;;2.60;;
16906;SDS011;8570;52.380;4.654;2024-03-23T05:03:19;17.80;;;3.03;;
16906;SDS011;8570;52.380;4.654;2024-03-23T05:08:21;15.37;;;3.13;;
16906;SDS011;8570;52.380;4.654;2024-03-23T05:13:23;15.07;;;3.17;;
16906;SDS011;8570;52.380;4.654;2024-03-23T05:18:30;13.80;;;3.33;;
16906;SDS011;8570;52.380;4.654;2024-03-23T05:23:36;16.23;;;3.73;;
16906;SDS011;8570;52.380;4.654;2024-03-23T05:28:43;9.10;;;2.93;;
16906;SDS011;8570;52.380;4.654;2024-03-23T05:33:47;17.13;;;3.37;;
16906;SDS011;8570;52.380;4.654;2024-03-23T05:38:49;15.27;;;3.17;;
16906;SDS011;8570;52.380;4.654;2024-03-23T05:43:51;10.80;;;3.07;;
16906;SDS011;8570;52.380;4.654;2024-03-23T05:48:54;14.33;;;3.47;;
16906;SDS011;8570;52.380;4.654;2024-03-23T05:54:18;13.30;;;3.17;;
16906;SDS011;8570;52.380;4.654;2024-03-23T05:59:29;10.57;;;3.47;;
16906;SDS011;8570;52.380;4.654;2024-03-23T06:04:34;14.33;;;3.60;;
16906;SDS011;8570;52.380;4.654;2024-03-23T06:09:38;19.23;;;3.90;;
16906;SDS011;8570;52.380;4.654;2024-03-23T06:14:40;15.63;;;3.37;;
16906;SDS011;8570;52.380;4.654;2024-03-23T06:19:43;14.23;;;2.97;;
16906;SDS011;8570;52.380;4.654;2024-03-23T06:24:46;10.83;;;3.00;;
16906;SDS011;8570;52.380;4.654;2024-03-23T06:29:56;13.53;;;2.83;;
16906;SDS011;8570;52.380;4.654;2024-03-23T06:34:59;14.90;;;3.67;;
16906;SDS011;8570;52.380;4.654;2024-03-23T06:40:08;16.73;;;3.53;;
16906;SDS011;8570;52.380;4.654;2024-03-23T06:45:12;12.70;;;3.50;;
16906;SDS011;8570;52.380;4.654;2024-03-23T06:50:16;14.87;;;3.07;;
16906;SDS011;8570;52.380;4.654;2024-03-23T06:55:18;12.70;;;2.93;;
16906;SDS011;8570;52.380;4.654;2024-03-23T07:00:20;15.37;;;2.97;;
16906;SDS011;8570;52.380;4.654;2024-03-23T07:05:26;14.60;;;3.30;;
16906;SDS011;8570;52.380;4.654;2024-03-23T07:10:28;12.40;;;2.90;;
16906;SDS011;8570;52.380;4.654;2024-03-23T07:15:30;13.87;;;3.37;;
16906;SDS011;8570;52.380;4.654;2024-03-23T07:20:35;11.13;;;2.57;;
16906;SDS011;8570;52.380;4.654;2024-03-23T07:25:37;19.93;;;3.00;;
16906;SDS011;8570;52.380;4.654;2024-03-23T07:30:39;11.47;;;2.47;;
16906;SDS011;8570;52.380;4.654;2024-03-23T07:35:47;18.70;;;2.67;;
16906;SDS011;8570;52.380;4.654;2024-03-23T07:41:08;22.83;;;2.93;;
16906;SDS011;8570;52.380;4.654;2024-03-23T07:46:16;19.50;;;3.07;;
16906;SDS011;8570;52.380;4.654;2024-03-23T07:56:39;16.67;;;2.60;;
16906;SDS011;8570;52.380;4.654;2024-03-23T08:01:44;11.53;;;2.13;;
16906;SDS011;8570;52.380;4.654;2024-03-23T08:06:59;11.07;;;2.17;;
16906;SDS011;8570;52.380;4.654;2024-03-23T08:12:07;11.17;;;3.47;;
16906;SDS011;8570;52.380;4.654;2024-03-23T08:17:11;10.90;;;2.43;;
16906;SDS011;8570;52.380;4.654;2024-03-23T08:22:16;21.13;;;3.50;;
16906;SDS011;8570;52.380;4.654;2024-03-23T08:27:25;12.57;;;2.73;;
16906;SDS011;8570;52.380;4.654;2024-03-23T08:32:43;11.53;;;3.30;;
16906;SDS011;8570;52.380;4.654;2024-03-23T08:37:55;16.53;;;2.77;;
16906;SDS011;8570;52.380;4.654;2024-03-23T08:42:57;13.83;;;2.80;;
16906;SDS011;8570;52.380;4.654;2024-03-23T08:48:02;14.53;;;2.97;;
16906;SDS011;8570;52.380;4.654;2024-03-23T08:53:06;12.87;;;3.00;;
16906;SDS011;8570;52.380;4.654;2024-03-23T08:58:11;11.23;;;2.40;;
16906;SDS011;8570;52.380;4.654;2024-03-23T09:03:14;18.20;;;2.87;;
16906;SDS011;8570;52.380;4.654;2024-03-23T09:08:18;12.50;;;2.93;;
16906;SDS011;8570;52.380;4.654;2024-03-23T09:13:19;15.67;;;2.60;;
16906;SDS011;8570;52.380;4.654;2024-03-23T09:18:21;15.00;;;3.13;;
16906;SDS011;8570;52.380;4.654;2024-03-23T09:23:25;19.77;;;3.27;;
16906;SDS011;8570;52.380;4.654;2024-03-23T09:28:27;14.93;;;2.60;;
16906;SDS011;8570;52.380;4.654;2024-03-23T09:33:30;12.77;;;3.07;;
16906;SDS011;8570;52.380;4.654;2024-03-23T09:38:34;14.97;;;2.90;;
16906;SDS011;8570;52.380;4.654;2024-03-23T09:43:36;15.93;;;3.50;;
16906;SDS011;8570;52.380;4.654;2024-03-23T09:48:38;18.23;;;3.30;;
16906;SDS011;8570;52.380;4.654;2024-03-23T09:53:42;15.13;;;2.80;;
16906;SDS011;8570;52.380;4.654;2024-03-23T09:58:43;13.13;;;2.93;;
16906;SDS011;8570;52.380;4.654;2024-03-23T10:03:45;12.50;;;2.83;;
16906;SDS011;8570;52.380;4.654;2024-03-23T10:08:48;16.20;;;2.90;;
16906;SDS011;8570;52.380;4.654;2024-03-23T10:13:50;13.53;;;2.87;;
16906;SDS011;8570;52.380;4.654;2024-03-23T10:18:52;20.10;;;3.37;;
16906;SDS011;8570;52.380;4.654;2024-03-23T10:23:55;15.67;;;2.90;;
16906;SDS011;8570;52.380;4.654;2024-03-23T10:28:57;12.93;;;2.80;;
16906;SDS011;8570;52.380;4.654;2024-03-23T10:34:02;21.17;;;3.67;;
16906;SDS011;8570;52.380;4.654;2024-03-23T10:39:05;20.73;;;3.47;;
16906;SDS011;8570;52.380;4.654;2024-03-23T10:44:08;10.87;;;3.10;;
16906;SDS011;8570;52.380;4.654;2024-03-23T10:49:11;11.43;;;2.80;;
16906;SDS011;8570;52.380;4.654;2024-03-23T10:54:14;19.27;;;3.23;;
16906;SDS011;8570;52.380;4.654;2024-03-23T10:59:16;14.90;;;2.83;;
16906;SDS011;8570;52.380;4.654;2024-03-23T11:04:28;15.27;;;2.80;;
16906;SDS011;8570;52.380;4.654;2024-03-23T11:09:42;18.07;;;3.20;;
16906;SDS011;8570;52.380;4.654;2024-03-23T11:14:45;13.80;;;2.93;;
16906;SDS011;8570;52.380;4.654;2024-03-23T11:19:55;14.20;;;3.20;;
16906;SDS011;8570;52.380;4.654;2024-03-23T11:24:59;11.50;;;3.10;;
16906;SDS011;8570;52.380;4.654;2024-03-23T11:30:09;15.70;;;3.22;;
16906;SDS011;8570;52.380;4.654;2024-03-23T11:35:24;17.17;;;3.10;;
16906;SDS011;8570;52.380;4.654;2024-03-23T11:40:28;9.40;;;2.10;;
16906;SDS011;8570;52.380;4.654;2024-03-23T11:45:34;10.07;;;2.50;;
16906;SDS011;8570;52.380;4.654;2024-03-23T11:50:37;4.30;;;1.43;;
16906;SDS011;8570;52.380;4.654;2024-03-23T11:55:43;15.17;;;2.70;;
16906;SDS011;8570;52.380;4.654;2024-03-23T12:00:50;17.37;;;3.03;;
16906;SDS011;8570;52.380;4.654;2024-03-23T12:05:53;13.27;;;3.27;;
16906;SDS011;8570;52.380;4.654;2024-03-23T12:11:05;19.40;;;3.53;;
16906;SDS011;8570;52.380;4.654;2024-03-23T12:16:09;15.53;;;3.57;;
16906;SDS011;8570;52.380;4.654;2024-03-23T12:21:12;14.03;;;2.80;;
16906;SDS011;8570;52.380;4.654;2024-03-23T12:26:15;17.67;;;2.57;;
16906;SDS011;8570;52.380;4.654;2024-03-23T12:31:18;11.33;;;2.37;;
16906;SDS011;8570;52.380;4.654;2024-03-23T12:36:20;14.13;;;2.57;;
16906;SDS011;8570;52.380;4.654;2024-03-23T12:41:23;17.27;;;2.63;;
16906;SDS011;8570;52.380;4.654;2024-03-23T12:46:24;9.43;;;1.90;;
16906;SDS011;8570;52.380;4.654;2024-03-23T12:51:26;7.73;;;1.70;;
16906;SDS011;8570;52.380;4.654;2024-03-23T12:56:29;8.43;;;2.20;;
16906;SDS011;8570;52.380;4.654;2024-03-23T13:01:31;10.63;;;2.33;;
16906;SDS011;8570;52.380;4.654;2024-03-23T13:06:33;11.43;;;2.53;;
16906;SDS011;8570;52.380;4.654;2024-03-23T13:11:36;9.63;;;2.60;;
16906;SDS011;8570;52.380;4.654;2024-03-23T13:16:38;9.53;;;2.30;;
16906;SDS011;8570;52.380;4.654;2024-03-23T13:21:40;8.60;;;2.20;;
16906;SDS011;8570;52.380;4.654;2024-03-23T13:26:43;11.70;;;2.27;;
16906;SDS011;8570;52.380;4.654;2024-03-23T13:31:45;15.17;;;2.90;;
16906;SDS011;8570;52.380;4.654;2024-03-23T13:36:47;8.93;;;2.43;;
16906;SDS011;8570;52.380;4.654;2024-03-23T13:41:50;9.97;;;2.70;;
16906;SDS011;8570;52.380;4.654;2024-03-23T13:46:52;7.33;;;2.13;;
16906;SDS011;8570;52.380;4.654;2024-03-23T13:51:54;7.70;;;2.10;;
16906;SDS011;8570;52.380;4.654;2024-03-23T13:56:58;13.83;;;2.50;;
16906;SDS011;8570;52.380;4.654;2024-03-23T14:02:00;10.67;;;2.73;;
16906;SDS011;8570;52.380;4.654;2024-03-23T14:07:02;7.03;;;2.20;;
16906;SDS011;8570;52.380;4.654;2024-03-23T14:12:06;7.85;;;1.85;;
16906;SDS011;8570;52.380;4.654;2024-03-23T14:17:09;9.55;;;2.35;;
16906;SDS011;8570;52.380;4.654;2024-03-23T14:22:14;7.87;;;1.87;;
16906;SDS011;8570;52.380;4.654;2024-03-23T14:27:19;12.20;;;2.22;;
16906;SDS011;8570;52.380;4.654;2024-03-23T14:32:21;11.73;;;2.45;;
16906;SDS011;8570;52.380;4.654;2024-03-23T14:37:23;13.93;;;3.35;;
16906;SDS011;8570;52.380;4.654;2024-03-23T14:42:26;17.98;;;3.10;;
16906;SDS011;8570;52.380;4.654;2024-03-23T14:47:28;7.97;;;2.00;;
16906;SDS011;8570;52.380;4.654;2024-03-23T14:52:31;11.98;;;1.92;;
16906;SDS011;8570;52.380;4.654;2024-03-23T14:57:34;13.93;;;2.65;;
16906;SDS011;8570;52.380;4.654;2024-03-23T15:02:36;10.93;;;2.35;;
16906;SDS011;8570;52.380;4.654;2024-03-23T15:07:38;8.00;;;2.25;;
16906;SDS011;8570;52.380;4.654;2024-03-23T15:12:42;11.10;;;2.08;;
16906;SDS011;8570;52.380;4.654;2024-03-23T15:17:44;13.63;;;2.97;;
16906;SDS011;8570;52.380;4.654;2024-03-23T15:22:46;8.25;;;2.10;;
16906;SDS011;8570;52.380;4.654;2024-03-23T15:27:49;7.65;;;1.98;;
16906;SDS011;8570;52.380;4.654;2024-03-23T15:38:36;5.80;;;1.13;;
16906;SDS011;8570;52.380;4.654;2024-03-23T15:43:46;2.47;;;1.20;;
16906;SDS011;8570;52.380;4.654;2024-03-23T15:48:53;3.63;;;1.20;;
16906;SDS011;8570;52.380;4.654;2024-03-23T15:54:00;6.28;;;1.08;;
16906;SDS011;8570;52.380;4.654;2024-03-23T15:59:16;5.37;;;1.63;;
16906;SDS011;8570;52.380;4.654;2024-03-23T16:04:18;6.20;;;1.90;;
16906;SDS011;8570;52.380;4.654;2024-03-23T16:09:20;8.83;;;1.77;;
16906;SDS011;8570;52.380;4.654;2024-03-23T16:14:24;8.13;;;2.37;;
16906;SDS011;8570;52.380;4.654;2024-03-23T16:19:26;12.90;;;2.90;;
16906;SDS011;8570;52.380;4.654;2024-03-23T16:24:27;6.23;;;2.03;;
16906;SDS011;8570;52.380;4.654;2024-03-23T16:29:31;7.07;;;2.10;;
16906;SDS011;8570;52.380;4.654;2024-03-23T16:34:33;16.43;;;2.57;;
16906;SDS011;8570;52.380;4.654;2024-03-23T16:39:37;6.70;;;2.60;;
16906;SDS011;8570;52.380;4.654;2024-03-23T16:44:40;10.93;;;1.80;;
16906;SDS011;8570;52.380;4.654;2024-03-23T16:49:42;5.13;;;1.67;;
16906;SDS011;8570;52.380;4.654;2024-03-23T16:54:44;9.87;;;1.70;;
16906;SDS011;8570;52.380;4.654;2024-03-23T16:59:47;6.80;;;1.80;;
16906;SDS011;8570;52.380;4.654;2024-03-23T17:04:49;13.83;;;3.23;;
16906;SDS011;8570;52.380;4.654;2024-03-23T17:09:50;12.93;;;2.20;;
16906;SDS011;8570;52.380;4.654;2024-03-23T17:14:54;9.23;;;1.87;;
16906;SDS011;8570;52.380;4.654;2024-03-23T17:19:58;13.00;;;2.40;;
16906;SDS011;8570;52.380;4.654;2024-03-23T17:25:00;12.13;;;1.93;;
16906;SDS011;8570;52.380;4.654;2024-03-23T17:30:04;9.27;;;2.07;;
16906;SDS011;8570;52.380;4.654;2024-03-23T17:35:07;6.93;;;1.90;;
16906;SDS011;8570;52.380;4.654;2024-03-23T17:40:09;7.27;;;2.60;;
16906;SDS011;8570;52.380;4.654;2024-03-23T17:45:13;11.00;;;1.70;;
16906;SDS011;8570;52.380;4.654;2024-03-23T17:50:15;15.50;;;2.80;;
16906;SDS011;8570;52.380;4.654;2024-03-23T17:55:17;12.37;;;2.87;;
16906;SDS011;8570;52.380;4.654;2024-03-23T18:00:20;13.87;;;2.73;;
16906;SDS011;8570;52.380;4.654;2024-03-23T18:05:22;17.93;;;3.17;;
16906;SDS011;8570;52.380;4.654;2024-03-23T18:10:24;16.40;;;2.83;;
16906;SDS011;8570;52.380;4.654;2024-03-23T18:15:27;12.07;;;2.97;;
16906;SDS011;8570;52.380;4.654;2024-03-23T18:20:29;19.93;;;2.70;;
16906;SDS011;8570;52.380;4.654;2024-03-23T18:25:30;11.23;;;3.20;;
16906;SDS011;8570;52.380;4.654;2024-03-23T18:30:34;15.27;;;3.43;;
16906;SDS011;8570;52.380;4.654;2024-03-23T18:35:35;17.57;;;3.13;;
16906;SDS011;8570;52.380;4.654;2024-03-23T18:40:43;17.80;;;3.93;;
16906;SDS011;8570;52.380;4.654;2024-03-23T18:45:47;15.27;;;3.50;;
16906;SDS011;8570;52.380;4.654;2024-03-23T18:50:49;16.27;;;3.80;;
16906;SDS011;8570;52.380;4.654;2024-03-23T18:55:51;15.17;;;3.63;;
16906;SDS011;8570;52.380;4.654;2024-03-23T19:00:59;17.57;;;3.07;;
16906;SDS011;8570;52.380;4.654;2024-03-23T19:06:05;11.40;;;3.47;;
16906;SDS011;8570;52.380;4.654;2024-03-23T19:11:07;15.27;;;3.20;;
16906;SDS011;8570;52.380;4.654;2024-03-23T19:16:10;14.20;;;2.70;;
16906;SDS011;8570;52.380;4.654;2024-03-23T19:21:12;9.73;;;2.87;;
16906;SDS011;8570;52.380;4.654;2024-03-23T19:26:14;11.23;;;2.20;;
16906;SDS011;8570;52.380;4.654;2024-03-23T19:31:17;13.77;;;2.93;;
16906;SDS011;8570;52.380;4.654;2024-03-23T19:36:19;3.97;;;1.93;;
16906;SDS011;8570;52.380;4.654;2024-03-23T19:41:20;11.47;;;2.40;;
16906;SDS011;8570;52.380;4.654;2024-03-23T19:46:24;12.23;;;2.50;;
16906;SDS011;8570;52.380;4.654;2024-03-23T19:51:26;6.17;;;2.50;;
16906;SDS011;8570;52.380;4.654;2024-03-23T19:56:27;11.67;;;2.37;;
16906;SDS011;8570;52.380;4.654;2024-03-23T20:01:30;8.17;;;2.03;;
16906;SDS011;8570;52.380;4.654;2024-03-23T20:06:32;7.87;;;2.30;;
16906;SDS011;8570;52.380;4.654;2024-03-23T20:11:35;10.27;;;2.30;;
16906;SDS011;8570;52.380;4.654;2024-03-23T20:16:38;11.60;;;2.03;;
16906;SDS011;8570;52.380;4.654;2024-03-23T20:21:40;10.17;;;2.70;;
16906;SDS011;8570;52.380;4.654;2024-03-23T20:26:42;7.20;;;2.40;;
16906;SDS011;8570;52.380;4.654;2024-03-23T20:31:45;16.90;;;2.97;;
16906;SDS011;8570;52.380;4.654;2024-03-23T20:36:47;7.80;;;2.80;;
16906;SDS011;8570;52.380;4.654;2024-03-23T20:41:49;11.27;;;2.50;;
16906;SDS011;8570;52.380;4.654;2024-03-23T20:46:52;10.87;;;2.30;;
16906;SDS011;8570;52.380;4.654;2024-03-23T20:51:54;7.37;;;2.30;;
16906;SDS011;8570;52.380;4.654;2024-03-23T20:56:55;8.53;;;2.33;;
16906;SDS011;8570;52.380;4.654;2024-03-23T21:01:59;11.57;;;2.40;;
16906;SDS011;8570;52.380;4.654;2024-03-23T21:07:01;20.53;;;2.57;;
16906;SDS011;8570;52.380;4.654;2024-03-23T21:12:03;8.60;;;2.50;;
16906;SDS011;8570;52.380;4.654;2024-03-23T21:17:06;10.27;;;2.00;;
16906;SDS011;8570;52.380;4.654;2024-03-23T21:22:08;8.97;;;1.97;;
16906;SDS011;8570;52.380;4.654;2024-03-23T21:27:10;5.77;;;1.97;;
16906;SDS011;8570;52.380;4.654;2024-03-23T21:32:13;8.50;;;2.20;;
16906;SDS011;8570;52.380;4.654;2024-03-23T21:37:16;7.90;;;1.63;;
16906;SDS011;8570;52.380;4.654;2024-03-23T21:42:18;11.83;;;2.03;;
16906;SDS011;8570;52.380;4.654;2024-03-23T21:47:21;10.17;;;2.23;;
16906;SDS011;8570;52.380;4.654;2024-03-23T21:52:22;8.17;;;2.30;;
16906;SDS011;8570;52.380;4.654;2024-03-23T21:57:24;9.73;;;2.50;;
16906;SDS011;8570;52.380;4.654;2024-03-23T22:02:27;9.57;;;2.00;;
16906;SDS011;8570;52.380;4.654;2024-03-23T22:07:29;10.80;;;2.80;;
16906;SDS011;8570;52.380;4.654;2024-03-23T22:12:32;21.10;;;2.73;;
16906;SDS011;8570;52.380;4.654;2024-03-23T22:17:35;10.83;;;2.43;;
16906;SDS011;8570;52.380;4.654;2024-03-23T22:22:37;12.57;;;2.40;;
16906;SDS011;8570;52.380;4.654;2024-03-23T22:27:39;12.60;;;2.50;;
16906;SDS011;8570;52.380;4.654;2024-03-23T22:38:40;15.80;;;3.57;;
16906;SDS011;8570;52.380;4.654;2024-03-23T22:44:04;11.27;;;3.27;;
16906;SDS011;8570;52.380;4.654;2024-03-23T22:49:11;10.10;;;2.83;;
16906;SDS011;8570;52.380;4.654;2024-03-23T23:17:31;11.97;;;3.93;;
16906;SDS011;8570;52.380;4.654;2024-03-23T23:29:17;11.77;;;3.63;;
